Terminal Aerodrome Forecast
Issued by NWS Bismarck, ND

Home | Current Version | Previous Version | Text Only | Print | Product List | Glossary Off
Versions: 1 2 3 4 5 6 7 8 9 10 11 12 13 14 15

000
FTUS43 KBIS 242300
TAFBIS
TAF
KBIS 242334Z 2500/2524 34007KT 5SM -RASN BR BKN007 OVC015
     FM250200 32011KT 3SM -SN BR OVC008
     FM250500 34008KT P6SM -SN OVC008
     FM250900 35009KT P6SM OVC020
     FM252000 27008KT P6SM SCT020 BKN100=

USA.gov is the U.S. government's official web portal to all federal, state and local government web resources and services.